Terminal Aerodrome Forecast
Issued by NWS

Home | Current Version | Previous Version | Text Only | Print | Product List | Glossary Off
Versions: 1 2 3 4 5 6 7 8 9 10 11 12 13 14 15 16 17 18 19

000
FTUS43 KMPX 251730
TAFAXN
TAF
KAXN 251730Z 2518/2618 34004KT P6SM OVC018
     FM252100 25003KT P6SM BKN018
      TEMPO 2521/2524 SCT018
     FM260200 19007KT P6SM BKN015
     FM260800 19010KT P6SM OVC010 PROB30 2608/2612 4SM -FZDZ BR
      OVC006
     FM261200 27009KT 6SM BR OVC012=

USA.gov is the U.S. government's official web portal to all federal, state and local government web resources and services.